createdAt,value
2018-03-23T00:00:53.529Z,57.80
2018-03-23T00:03:21.042Z,58.10
2018-03-23T00:05:48.105Z,58.50
2018-03-23T00:08:15.854Z,59.20
2018-03-23T00:10:42.877Z,59.10
2018-03-23T00:13:10.030Z,58.80
2018-03-23T00:15:37.118Z,58.80
2018-03-23T00:18:04.890Z,58.90
2018-03-23T00:20:31.874Z,58.90
2018-03-23T00:22:58.902Z,58.90
2018-03-23T00:25:26.718Z,59.00
2018-03-23T00:27:53.700Z,59.00
2018-03-23T00:30:20.700Z,58.50
2018-03-23T00:32:47.705Z,59.30
2018-03-23T00:35:14.698Z,59.40
2018-03-23T00:37:41.813Z,59.10
2018-03-23T00:40:08.828Z,59.10
2018-03-23T00:42:36.609Z,58.90
2018-03-23T00:45:03.675Z,58.90
2018-03-23T00:47:30.677Z,58.80
2018-03-23T00:49:57.689Z,59.40
2018-03-23T00:52:24.970Z,60.00
2018-03-23T00:54:52.746Z,61.00
2018-03-23T00:57:25.438Z,60.50
2018-03-23T00:59:52.452Z,60.30
2018-03-23T01:02:19.478Z,60.30
2018-03-23T01:04:47.406Z,60.40
2018-03-23T01:07:15.366Z,61.20
2018-03-23T01:09:43.194Z,61.30
2018-03-23T01:12:10.407Z,60.70
2018-03-23T01:14:37.410Z,60.60
2018-03-23T01:17:04.809Z,61.20
2018-03-23T01:19:32.217Z,60.80
2018-03-23T01:22:00.025Z,60.30
2018-03-23T01:24:27.017Z,60.30
2018-03-23T01:26:54.049Z,60.10
2018-03-23T01:29:21.337Z,60.80
2018-03-23T01:31:48.437Z,60.80
2018-03-23T01:34:15.477Z,60.70
2018-03-23T01:36:42.496Z,60.20
2018-03-23T01:39:09.481Z,60.70
2018-03-23T01:41:36.509Z,60.50
2018-03-23T01:44:03.563Z,61.40
2018-03-23T01:46:31.274Z,61.10
2018-03-23T01:48:58.307Z,60.90
2018-03-23T01:51:25.290Z,60.90
2018-03-23T01:53:53.077Z,61.40
2018-03-23T01:56:20.084Z,61.40
2018-03-23T01:58:47.076Z,62.20
2018-03-23T02:01:14.782Z,62.40
2018-03-23T02:03:41.908Z,62.30
2018-03-23T02:06:08.916Z,62.30
2018-03-23T02:08:36.654Z,61.40
2018-03-23T02:11:04.433Z,61.90
2018-03-23T02:13:32.221Z,61.20
2018-03-23T02:15:59.270Z,61.20
2018-03-23T02:18:26.315Z,61.00
2018-03-23T02:20:53.330Z,60.80
2018-03-23T02:23:20.694Z,60.90
2018-03-23T02:25:47.786Z,60.40
2018-03-23T02:28:14.766Z,60.80
2018-03-23T02:30:41.806Z,61.20
2018-03-23T02:33:09.203Z,60.60
2018-03-23T02:35:36.346Z,61.50
2018-03-23T02:38:04.116Z,61.30
2018-03-23T02:40:31.867Z,61.40
2018-03-23T02:42:59.669Z,61.90
2018-03-23T02:45:27.066Z,61.70
2018-03-23T02:47:54.106Z,62.20
2018-03-23T02:50:21.155Z,61.60
2018-03-23T02:52:48.313Z,61.30
2018-03-23T02:55:15.618Z,61.50
2018-03-23T02:57:43.448Z,61.70
2018-03-23T03:00:11.494Z,62.20
2018-03-23T03:02:38.601Z,62.20
2018-03-23T03:05:05.609Z,62.20
2018-03-23T03:07:32.976Z,61.90
2018-03-23T03:10:00.002Z,62.50
2018-03-23T03:12:27.084Z,62.60
2018-03-23T03:14:54.101Z,62.70
2018-03-23T03:17:21.342Z,63.20
2018-03-23T03:19:48.409Z,62.60
2018-03-23T03:22:15.518Z,62.10
2018-03-23T03:24:42.525Z,63.20
2018-03-23T03:27:09.529Z,63.20
2018-03-23T03:29:36.526Z,63.00
2018-03-23T03:32:03.590Z,62.90
2018-03-23T03:34:30.601Z,62.20
2018-03-23T03:36:57.613Z,62.10
2018-03-23T03:39:24.617Z,63.10
2018-03-23T03:41:51.698Z,63.20
2018-03-23T03:44:18.717Z,62.90
2018-03-23T03:46:45.705Z,62.20
2018-03-23T03:49:12.861Z,62.10
2018-03-23T03:51:40.058Z,62.20
2018-03-23T03:54:07.153Z,62.10
2018-03-23T03:56:34.130Z,63.20
2018-03-23T03:59:01.910Z,62.80
2018-03-23T04:01:36.613Z,62.90
2018-03-23T04:04:03.807Z,63.00
2018-03-23T04:06:30.796Z,62.30
2018-03-23T04:08:57.833Z,62.50
2018-03-23T04:11:24.812Z,62.40
2018-03-23T04:13:52.599Z,62.50
2018-03-23T04:16:19.609Z,62.40
2018-03-23T04:18:46.599Z,62.90
2018-03-23T04:21:13.590Z,63.40
2018-03-23T04:23:40.733Z,62.60
2018-03-23T04:26:07.762Z,62.20
2018-03-23T04:28:34.725Z,62.40
2018-03-23T04:31:01.751Z,61.70
2018-03-23T04:33:28.770Z,62.00
2018-03-23T04:35:55.771Z,62.10
2018-03-23T04:38:22.809Z,62.70
2018-03-23T04:40:49.806Z,62.70
2018-03-23T04:43:17.682Z,63.20
2018-03-23T04:45:44.786Z,63.10
2018-03-23T04:48:11.790Z,62.90
2018-03-23T04:50:38.777Z,62.00
2018-03-23T04:53:05.897Z,61.40
2018-03-23T04:55:33.093Z,60.90
2018-03-23T04:58:00.183Z,61.10
2018-03-23T05:00:27.158Z,61.60
2018-03-23T05:02:54.285Z,60.60
2018-03-23T05:05:21.332Z,61.40
2018-03-23T05:07:48.375Z,62.00
2018-03-23T05:10:15.490Z,61.40
2018-03-23T05:12:42.584Z,62.40
2018-03-23T05:15:09.606Z,64.00
2018-03-23T05:17:36.880Z,62.10
2018-03-23T05:20:04.734Z,61.20
2018-03-23T05:22:31.801Z,61.10
2018-03-23T05:24:58.796Z,61.00
2018-03-23T05:27:25.788Z,60.80
2018-03-23T05:29:52.794Z,62.90
2018-03-23T05:32:19.870Z,63.10
2018-03-23T05:34:46.866Z,63.70
2018-03-23T05:37:14.189Z,63.30
2018-03-23T05:39:42.441Z,62.40
2018-03-23T05:42:10.298Z,62.00
2018-03-23T05:44:37.481Z,62.00
2018-03-23T05:47:04.650Z,62.30
2018-03-23T05:49:31.758Z,62.90
2018-03-23T05:51:59.042Z,62.10
2018-03-23T05:54:28.257Z,62.60
2018-03-23T05:56:55.473Z,62.60
2018-03-23T05:59:22.515Z,62.70
2018-03-23T06:01:49.904Z,62.60
2018-03-23T06:04:16.922Z,62.50
2018-03-23T06:06:44.230Z,62.00
2018-03-23T06:09:11.384Z,62.60
2018-03-23T06:11:38.566Z,62.20
2018-03-23T06:14:05.778Z,60.80
2018-03-23T06:16:32.946Z,61.50
2018-03-23T06:19:00.078Z,61.60
2018-03-23T06:21:27.966Z,61.10
2018-03-23T06:23:55.333Z,61.10
2018-03-23T06:26:23.209Z,61.30
2018-03-23T06:28:50.370Z,61.10
2018-03-23T06:31:18.369Z,62.00
2018-03-23T06:33:46.178Z,60.30
2018-03-23T06:36:13.130Z,60.10
2018-03-23T06:38:40.349Z,59.50
2018-03-23T06:41:07.427Z,59.60
2018-03-23T06:43:34.682Z,59.20
2018-03-23T06:46:01.883Z,59.20
2018-03-23T06:48:28.959Z,59.30
2018-03-23T06:50:56.006Z,58.80
2018-03-23T06:53:23.214Z,57.60
2018-03-23T06:55:50.421Z,56.40
2018-03-23T06:58:17.593Z,59.20
2018-03-23T07:00:52.614Z,59.30
2018-03-23T07:03:19.953Z,59.20
2018-03-23T07:05:47.130Z,58.60
2018-03-23T07:08:14.202Z,58.30
2018-03-23T07:10:41.401Z,58.40
2018-03-23T07:13:08.578Z,57.90
2018-03-23T07:15:35.646Z,57.10
2018-03-23T07:18:02.854Z,57.70
2018-03-23T07:20:30.713Z,56.80
2018-03-23T07:22:58.669Z,56.00
2018-03-23T07:25:26.038Z,55.90
2018-03-23T07:27:53.113Z,55.60
2018-03-23T07:30:20.534Z,55.90
2018-03-23T07:32:48.611Z,55.00
2018-03-23T07:35:15.862Z,55.00
2018-03-23T07:37:43.282Z,54.60
2018-03-23T07:40:10.521Z,53.60
2018-03-23T07:42:37.857Z,54.20
2018-03-23T07:45:05.026Z,53.70
2018-03-23T07:47:32.813Z,52.70
2018-03-23T07:50:00.093Z,52.70
2018-03-23T07:52:27.174Z,53.00
2018-03-23T07:54:54.313Z,54.10
2018-03-23T07:57:21.389Z,53.60
2018-03-23T07:59:48.860Z,52.80
2018-03-23T08:02:16.149Z,54.40
2018-03-23T08:04:43.330Z,52.60
2018-03-23T08:07:10.406Z,51.10
2018-03-23T08:09:37.374Z,50.70
2018-03-23T08:12:04.697Z,50.80
2018-03-23T08:14:31.994Z,50.40
2018-03-23T08:16:59.017Z,50.50
2018-03-23T08:19:26.242Z,50.60
2018-03-23T08:21:53.629Z,50.80
2018-03-23T08:24:20.681Z,49.80
2018-03-23T08:26:47.901Z,49.00
2018-03-23T08:29:15.022Z,49.10
2018-03-23T08:31:42.278Z,48.30
2018-03-23T08:34:09.326Z,49.00
2018-03-23T08:36:37.826Z,47.90
2018-03-23T08:39:05.169Z,47.10
2018-03-23T08:41:32.230Z,47.90
2018-03-23T08:43:59.873Z,47.80
2018-03-23T08:46:27.108Z,47.30
2018-03-23T08:48:54.166Z,46.90
2018-03-23T08:51:21.370Z,47.00
2018-03-23T08:53:48.394Z,46.10
2018-03-23T08:56:15.621Z,47.10
2018-03-23T08:58:43.456Z,48.60
2018-03-23T09:01:11.430Z,48.40
2018-03-23T09:03:38.617Z,48.40
2018-03-23T09:06:06.557Z,48.40
2018-03-23T09:08:33.678Z,48.40
2018-03-23T09:11:00.773Z,48.40
2018-03-23T09:13:28.005Z,47.00
2018-03-23T09:15:55.194Z,46.50
2018-03-23T09:18:22.220Z,46.50
2018-03-23T09:20:49.409Z,46.80
2018-03-23T09:23:16.663Z,46.40
2018-03-23T09:25:43.854Z,46.00
2018-03-23T09:28:14.470Z,45.40
2018-03-23T09:30:42.425Z,45.10
2018-03-23T09:33:09.773Z,45.10
2018-03-23T09:35:36.982Z,44.40
2018-03-23T09:38:03.987Z,44.30
2018-03-23T09:40:31.836Z,46.90
2018-03-23T09:42:59.737Z,47.90
2018-03-23T09:45:26.940Z,47.80
2018-03-23T09:47:54.153Z,44.60
2018-03-23T09:50:21.243Z,45.00
2018-03-23T09:52:48.654Z,47.40
2018-03-23T09:55:15.662Z,50.80
2018-03-23T09:57:43.472Z,45.50
2018-03-23T10:00:10.756Z,45.40
2018-03-23T10:02:38.018Z,46.30
2018-03-23T10:05:06.003Z,46.80
2018-03-23T10:07:33.218Z,46.60
2018-03-23T10:10:00.297Z,44.50
2018-03-23T10:12:27.529Z,45.90
2018-03-23T10:14:54.685Z,45.30
2018-03-23T10:17:22.587Z,42.70
2018-03-23T10:19:51.361Z,42.60
2018-03-23T10:22:18.582Z,42.80
2018-03-23T10:24:45.814Z,41.10
2018-03-23T10:27:12.862Z,42.70
2018-03-23T10:29:41.795Z,44.00
2018-03-23T10:32:09.083Z,42.00
2018-03-23T10:34:36.285Z,42.60
2018-03-23T10:37:04.125Z,40.40
2018-03-23T10:39:31.295Z,40.30
2018-03-23T10:41:58.390Z,40.10
2018-03-23T10:44:25.502Z,41.30
2018-03-23T10:46:52.612Z,42.80
2018-03-23T10:49:19.690Z,38.10
2018-03-23T10:51:48.076Z,38.10
2018-03-23T10:54:17.201Z,37.50
2018-03-23T10:56:45.986Z,39.40
2018-03-23T10:59:13.857Z,39.30
2018-03-23T11:01:47.770Z,38.10
2018-03-23T11:04:15.647Z,36.00
2018-03-23T11:06:42.874Z,35.90
2018-03-23T11:09:10.241Z,35.80
2018-03-23T11:11:38.047Z,38.80
2018-03-23T11:14:05.147Z,38.70
2018-03-23T11:16:32.159Z,39.30
2018-03-23T11:18:59.292Z,39.90
2018-03-23T11:21:26.537Z,38.50
2018-03-23T11:23:53.740Z,39.80
2018-03-23T11:26:21.268Z,40.00
2018-03-23T11:28:48.550Z,40.00
2018-03-23T11:31:15.643Z,38.10
2018-03-23T11:33:43.754Z,37.50
2018-03-23T11:36:10.955Z,37.50
2018-03-23T11:38:38.218Z,36.10
2018-03-23T11:41:05.371Z,35.40
2018-03-23T11:43:32.738Z,37.00
2018-03-23T11:45:59.750Z,35.20
2018-03-23T11:48:27.758Z,33.10
2018-03-23T11:50:55.068Z,33.10
2018-03-23T11:53:23.213Z,30.00
2018-03-23T11:55:50.294Z,30.00
2018-03-23T11:58:18.262Z,29.50
2018-03-23T12:00:45.345Z,31.00
2018-03-23T12:03:12.442Z,32.50
2018-03-23T12:05:39.440Z,33.50
2018-03-23T12:08:06.662Z,34.90
2018-03-23T12:10:33.913Z,36.10
2018-03-23T12:13:01.258Z,36.90
2018-03-23T12:15:28.382Z,37.10
2018-03-23T12:17:55.422Z,39.00
2018-03-23T12:20:22.469Z,37.40
2018-03-23T12:22:49.521Z,36.50
2018-03-23T12:25:16.521Z,38.10
2018-03-23T12:27:44.314Z,39.20
2018-03-23T12:30:11.357Z,39.20
2018-03-23T12:32:38.673Z,38.10
2018-03-23T12:35:06.549Z,39.40
2018-03-23T12:37:33.557Z,39.30
2018-03-23T12:40:00.842Z,39.90
2018-03-23T12:42:27.969Z,40.00
2018-03-23T12:44:54.974Z,40.80
2018-03-23T12:47:21.997Z,41.40
2018-03-23T12:49:49.001Z,41.80
2018-03-23T12:52:16.011Z,39.80
2018-03-23T12:54:43.197Z,40.10
2018-03-23T12:57:10.421Z,39.30
2018-03-23T12:59:37.437Z,39.20
2018-03-23T13:02:04.770Z,38.50
2018-03-23T13:04:31.994Z,39.70
2018-03-23T13:06:59.063Z,38.80
2018-03-23T13:09:27.110Z,41.20
2018-03-23T13:11:54.176Z,41.10
2018-03-23T13:14:21.170Z,42.30
2018-03-23T13:19:22.751Z,42.30
2018-03-23T13:21:50.039Z,42.80
2018-03-23T13:24:17.136Z,42.70
2018-03-23T13:26:44.306Z,42.70
2018-03-23T13:29:12.342Z,41.50
2018-03-23T13:31:39.397Z,41.30
2018-03-23T13:34:06.506Z,41.70
2018-03-23T13:36:33.697Z,42.20
2018-03-23T13:39:01.067Z,42.10
2018-03-23T13:41:28.134Z,43.40
2018-03-23T13:43:55.397Z,42.50
2018-03-23T13:46:22.594Z,42.00
2018-03-23T13:48:50.331Z,40.00
2018-03-23T13:51:17.370Z,39.90
2018-03-23T13:53:44.669Z,39.30
2018-03-23T13:56:11.979Z,36.40
2018-03-23T13:58:45.134Z,35.10
2018-03-23T14:01:18.461Z,33.90
2018-03-23T14:03:46.356Z,36.40
2018-03-23T14:06:14.286Z,37.50
2018-03-23T14:08:41.379Z,37.50
2018-03-23T14:11:08.597Z,40.40
2018-03-23T14:13:35.819Z,41.20
2018-03-23T14:16:02.974Z,41.60
2018-03-23T14:18:30.137Z,41.70
2018-03-23T14:20:57.909Z,42.80
2018-03-23T14:23:25.753Z,44.20
2018-03-23T14:25:52.819Z,43.50
2018-03-23T14:28:20.961Z,43.80
2018-03-23T14:30:49.096Z,43.70
2018-03-23T14:33:16.326Z,43.70
2018-03-23T14:35:43.564Z,43.90
2018-03-23T14:38:11.389Z,44.50
2018-03-23T14:40:38.551Z,44.50
2018-03-23T14:43:05.601Z,44.60
2018-03-23T14:45:33.609Z,44.80
2018-03-23T14:48:00.830Z,45.30
2018-03-23T14:50:27.980Z,45.30
2018-03-23T14:52:55.994Z,46.40
2018-03-23T14:55:23.205Z,46.40
2018-03-23T14:57:50.390Z,45.70
2018-03-23T15:00:18.198Z,45.80
2018-03-23T15:02:46.078Z,45.50
2018-03-23T15:05:13.305Z,45.40
2018-03-23T15:07:40.317Z,45.20
2018-03-23T15:10:07.321Z,45.70
2018-03-23T15:12:34.401Z,46.80
2018-03-23T15:15:01.665Z,46.50
2018-03-23T15:17:29.155Z,45.40
2018-03-23T15:19:56.224Z,45.50
2018-03-23T15:22:23.277Z,44.30
2018-03-23T15:24:50.498Z,43.60
2018-03-23T15:27:17.760Z,42.80
2018-03-23T15:29:44.841Z,43.50
2018-03-23T15:32:13.050Z,43.60
2018-03-23T15:34:40.283Z,43.50
2018-03-23T15:37:08.239Z,44.40
2018-03-23T15:39:35.454Z,44.30
2018-03-23T15:42:02.953Z,44.40
2018-03-23T15:44:30.125Z,44.20
2018-03-23T15:46:57.915Z,44.70
2018-03-23T15:49:25.865Z,45.20
2018-03-23T15:51:53.086Z,45.20
2018-03-23T15:54:21.322Z,44.80
2018-03-23T15:56:48.401Z,45.30
2018-03-23T15:59:15.561Z,45.70
2018-03-23T16:01:42.797Z,45.90
2018-03-23T16:04:10.030Z,46.80
2018-03-23T16:06:37.142Z,45.10
2018-03-23T16:09:05.206Z,44.50
2018-03-23T16:11:32.537Z,44.30
2018-03-23T16:13:59.854Z,44.00
2018-03-23T16:16:27.853Z,42.70
2018-03-23T16:18:54.876Z,42.70
2018-03-23T16:21:21.896Z,43.40
2018-03-23T16:23:49.877Z,43.40
2018-03-23T16:26:17.073Z,42.90
2018-03-23T16:28:44.129Z,43.10
2018-03-23T16:31:11.274Z,43.60
2018-03-23T16:33:39.188Z,42.90
2018-03-23T16:36:06.221Z,42.80
2018-03-23T16:38:33.451Z,43.60
2018-03-23T16:41:00.657Z,44.80
2018-03-23T16:43:28.586Z,44.80
2018-03-23T16:45:55.585Z,44.70
2018-03-23T16:48:22.814Z,43.60
2018-03-23T16:50:50.141Z,43.70
2018-03-23T16:53:17.297Z,43.90
2018-03-23T16:55:44.597Z,44.00
2018-03-23T16:58:11.898Z,44.30
2018-03-23T17:00:38.897Z,45.30
2018-03-23T17:03:05.976Z,46.20
2018-03-23T17:05:33.231Z,46.20
2018-03-23T17:08:00.361Z,46.00
2018-03-23T17:10:27.564Z,46.70
2018-03-23T17:12:55.041Z,46.50
2018-03-23T17:15:23.011Z,46.90
2018-03-23T17:17:50.902Z,46.40
2018-03-23T17:20:18.390Z,46.40
2018-03-23T17:22:45.671Z,47.20
2018-03-23T17:25:12.936Z,46.60
2018-03-23T17:27:40.093Z,46.10
2018-03-23T17:30:07.364Z,46.30
2018-03-23T17:32:36.498Z,47.30
2018-03-23T17:35:03.787Z,47.70
2018-03-23T17:37:31.853Z,47.70
2018-03-23T17:39:59.676Z,47.50
2018-03-23T17:42:27.574Z,47.40
2018-03-23T17:44:54.614Z,47.30
2018-03-23T17:47:21.822Z,47.60
2018-03-23T17:49:48.869Z,47.50
2018-03-23T17:52:16.204Z,47.10
2018-03-23T17:54:43.421Z,47.50
2018-03-23T17:57:10.594Z,47.60
2018-03-23T17:59:37.768Z,47.80
2018-03-23T18:02:04.946Z,46.70
2018-03-23T18:04:32.600Z,47.10
2018-03-23T18:06:59.690Z,47.40
2018-03-23T18:09:27.731Z,48.00
2018-03-23T18:11:55.514Z,47.70
2018-03-23T18:14:22.582Z,47.70
2018-03-23T18:16:49.633Z,48.50
2018-03-23T18:19:17.524Z,48.90
2018-03-23T18:21:44.546Z,48.80
2018-03-23T18:24:11.966Z,49.10
2018-03-23T18:26:39.093Z,49.50
2018-03-23T18:29:06.358Z,49.60
2018-03-23T18:31:33.510Z,49.90
2018-03-23T18:34:01.694Z,50.40
2018-03-23T18:36:28.830Z,50.60
2018-03-23T18:38:56.654Z,51.60
2018-03-23T18:41:23.796Z,51.10
2018-03-23T18:43:51.782Z,51.70
2018-03-23T18:46:18.812Z,51.70
2018-03-23T18:48:45.846Z,52.60
2018-03-23T18:51:13.012Z,53.10
2018-03-23T18:53:40.178Z,53.20
2018-03-23T18:56:07.234Z,53.20
2018-03-23T18:58:34.534Z,53.00
2018-03-23T19:01:01.944Z,52.90
2018-03-23T19:03:29.094Z,53.40
2018-03-23T19:05:56.251Z,53.50
2018-03-23T19:08:23.341Z,54.20
2018-03-23T19:10:50.470Z,54.10
2018-03-23T19:13:17.763Z,54.00
2018-03-23T19:15:45.593Z,54.40
2018-03-23T19:18:13.530Z,54.70
2018-03-23T19:20:40.747Z,54.60
2018-03-23T19:23:07.830Z,54.70
2018-03-23T19:25:34.870Z,54.90
2018-03-23T19:28:02.105Z,55.20
2018-03-23T19:30:29.934Z,55.80
2018-03-23T19:32:57.324Z,55.80
2018-03-23T19:35:24.510Z,55.60
2018-03-23T19:37:52.502Z,54.70
2018-03-23T19:40:19.626Z,54.60
2018-03-23T19:42:46.866Z,55.10
2018-03-23T19:45:14.092Z,55.70
2018-03-23T19:47:41.445Z,55.70
2018-03-23T19:50:09.375Z,56.30
2018-03-23T19:52:36.938Z,56.30
2018-03-23T19:55:04.897Z,56.90
2018-03-23T19:57:32.040Z,56.90
2018-03-23T20:00:00.111Z,56.30
2018-03-23T20:02:27.322Z,56.30
2018-03-23T20:04:54.977Z,56.50
2018-03-23T20:07:22.950Z,57.00
2018-03-23T20:09:50.346Z,57.00
2018-03-23T20:12:17.645Z,56.90
2018-03-23T20:14:45.560Z,56.50
2018-03-23T20:17:12.855Z,56.50
2018-03-23T20:19:40.035Z,56.30
2018-03-23T20:22:07.339Z,56.50
2018-03-23T20:24:34.366Z,57.10
2018-03-23T20:27:07.487Z,57.10
2018-03-23T20:29:35.858Z,57.40
2018-03-23T20:32:09.978Z,57.50
2018-03-23T20:34:37.046Z,57.50
2018-03-23T20:37:04.214Z,56.80
2018-03-23T20:39:31.537Z,57.00
2018-03-23T20:41:58.965Z,56.70
2018-03-23T20:44:26.912Z,57.10
2018-03-23T20:46:55.314Z,56.60
2018-03-23T20:49:23.059Z,56.60
2018-03-23T20:51:50.202Z,57.80
2018-03-23T20:54:17.358Z,56.90
2018-03-23T20:56:44.607Z,56.70
2018-03-23T20:59:11.875Z,57.20
2018-03-23T21:01:39.133Z,57.00
2018-03-23T21:04:06.677Z,57.20
2018-03-23T21:06:33.874Z,58.00
2018-03-23T21:09:00.995Z,57.40
2018-03-23T21:11:28.497Z,57.30
2018-03-23T21:13:55.842Z,57.40
2018-03-23T21:16:23.095Z,57.40
2018-03-23T21:18:50.931Z,57.50
2018-03-23T21:21:18.141Z,57.40
2018-03-23T21:23:45.381Z,57.40
2018-03-23T21:26:13.157Z,57.40
2018-03-23T21:28:40.321Z,57.30
2018-03-23T21:31:07.656Z,57.40
2018-03-23T21:33:34.911Z,57.80
2018-03-23T21:36:02.060Z,57.60
2018-03-23T21:38:29.397Z,57.40
2018-03-23T21:40:56.488Z,58.00
2018-03-23T21:43:23.624Z,57.40
2018-03-23T21:45:51.042Z,57.30
2018-03-23T21:48:18.300Z,57.40
2018-03-23T21:50:45.651Z,57.60
2018-03-23T21:53:13.042Z,58.00
2018-03-23T21:55:40.217Z,57.40
2018-03-23T21:58:07.342Z,57.10
2018-03-23T22:00:34.727Z,57.30
2018-03-23T22:03:02.255Z,57.40
2018-03-23T22:05:29.512Z,57.50
2018-03-23T22:07:57.034Z,57.40
2018-03-23T22:10:24.311Z,57.30
2018-03-23T22:12:51.650Z,58.00
2018-03-23T22:15:18.893Z,58.40
2018-03-23T22:17:46.776Z,59.10
2018-03-23T22:20:14.738Z,58.10
2018-03-23T22:22:41.806Z,58.00
2018-03-23T22:25:09.113Z,57.80
2018-03-23T22:27:36.350Z,58.20
2018-03-23T22:30:03.698Z,58.20
2018-03-23T22:32:31.027Z,58.30
2018-03-23T22:34:58.118Z,58.10
2018-03-23T22:37:25.895Z,58.20
2018-03-23T22:39:53.220Z,58.10
2018-03-23T22:42:20.433Z,57.90
2018-03-23T22:44:47.512Z,58.50
2018-03-23T22:47:15.092Z,58.40
2018-03-23T22:49:42.204Z,58.60
2018-03-23T22:52:09.365Z,58.60
2018-03-23T22:54:36.625Z,58.50
2018-03-23T22:57:04.198Z,58.50
2018-03-23T22:59:31.478Z,58.40
2018-03-23T23:01:58.777Z,58.60
2018-03-23T23:04:26.818Z,58.70
2018-03-23T23:06:53.985Z,58.60
2018-03-23T23:09:21.262Z,57.90
2018-03-23T23:11:48.290Z,57.70
2018-03-23T23:14:15.361Z,57.20
2018-03-23T23:16:43.397Z,58.30
2018-03-23T23:19:10.672Z,58.20
2018-03-23T23:21:38.574Z,58.10
2018-03-23T23:24:05.817Z,58.10
2018-03-23T23:26:33.004Z,57.20
2018-03-23T23:29:00.343Z,57.20
2018-03-23T23:31:27.516Z,57.90
2018-03-23T23:33:54.962Z,57.30
2018-03-23T23:36:22.795Z,57.70
2018-03-23T23:38:49.986Z,57.50
2018-03-23T23:41:17.038Z,57.30
2018-03-23T23:43:44.421Z,57.30
2018-03-23T23:46:11.635Z,57.50
2018-03-23T23:48:38.656Z,57.60
2018-03-23T23:51:05.669Z,58.30
2018-03-23T23:53:33.143Z,58.40
2018-03-23T23:56:01.034Z,58.10
2018-03-23T23:58:28.054Z,58.10
